首页
METAR-TAF:

METAR-TAF

机场 :

南京禄口国际机场

南京, 中华人民共和国

纬度: 32-00N, 经度: 118-48E, 海拔: 12米

当前天气观测

该预报发布于46分钟前的04:00 UTC
风速4节,风向北转东北,在北转西北东转东北之间变化
温度 9°C
湿度 100%
气压 1023 hPa
能見度: 6000
多云层高于900英尺
阴天层高于3000英尺
小雨

METAR: ZSNJ 180400Z 02002MPS 340V070 6000 -RA BKN009 OVC030 09/09 Q1023 BECMG TL0530 BKN013

时间: 12:46 (04:46 UTC)

预报

该预报发布于9小时和44分钟前的19:02 UTC
预报有效从18日的 00点(UTC)到 18日的 24点(UTC)
风速8节,风向
能見度: 3500
多云层高于1000英尺
阴天层高于3000英尺
小雨, 轻雾

TAF: ZSNJ 171902Z 1800/1824 01004MPS 3500 -RA BR BKN010 OVC030 TX11/1806Z TN05/1822Z

超过4000个机场的气象观测和天气预报(METAR&TAF报告)。

可查询的气象台以黄色和红色小点在地图上表示。

将鼠标移到小点上方,可查看气象台名称。

然后点击查看天气观测和预报。

如需切换地图:点击带黑十字的绿色按钮放大地图;点击带横线的绿色按钮缩小地图;或者点击绿色箭头查看邻近地区的地图。


METAR-TAF: